createdAt,value
2022-08-01T00:01:33.442Z,84.65
2022-08-01T00:04:08.098Z,84.33
2022-08-01T00:06:36.259Z,84.77
2022-08-01T00:09:04.795Z,83.83
2022-08-01T00:11:32.843Z,83.48
2022-08-01T00:14:00.967Z,82.68
2022-08-01T00:16:29.369Z,82.44
2022-08-01T00:18:57.633Z,80.79
2022-08-01T00:21:27.226Z,82.35
2022-08-01T00:23:55.433Z,83.42
2022-08-01T00:26:23.596Z,83.68
2022-08-01T00:28:51.652Z,84.48
2022-08-01T00:31:19.807Z,84.85
2022-08-01T00:33:49.529Z,84.78
2022-08-01T00:36:17.708Z,84.97
2022-08-01T00:38:47.262Z,83.82
2022-08-01T00:41:15.421Z,83.92
2022-08-01T00:43:43.616Z,84.10
2022-08-01T00:46:11.839Z,82.72
2022-08-01T00:48:40.088Z,82.64
2022-08-01T00:51:09.479Z,82.20
2022-08-01T00:53:51.319Z,82.59
2022-08-01T00:56:22.402Z,82.75
2022-08-01T00:58:50.660Z,83.88
2022-08-01T01:01:21.651Z,84.44
2022-08-01T01:03:59.518Z,85.28
2022-08-01T01:06:36.422Z,84.97
2022-08-01T01:09:29.507Z,84.38
2022-08-01T01:12:09.800Z,82.10
2022-08-01T01:14:47.205Z,83.52
2022-08-01T01:17:40.686Z,83.46
2022-08-01T01:20:09.013Z,82.68
2022-08-01T01:22:49.691Z,81.96
2022-08-01T01:25:31.178Z,82.28
2022-08-01T01:28:09.943Z,82.95
2022-08-01T01:30:43.234Z,83.26
2022-08-01T01:33:13.462Z,82.04
2022-08-01T01:35:47.519Z,83.17
2022-08-01T01:38:20.818Z,81.67
2022-08-01T01:40:51.164Z,83.06
2022-08-01T01:43:21.348Z,83.07
2022-08-01T01:45:59.659Z,83.44
2022-08-01T01:48:29.991Z,83.54
2022-08-01T01:50:59.774Z,85.10
2022-08-01T01:53:30.613Z,85.55
2022-08-01T01:56:01.084Z,85.27
2022-08-01T01:58:30.859Z,86.18
2022-08-01T02:01:03.575Z,86.31
2022-08-01T02:03:33.567Z,86.13
2022-08-01T02:06:03.796Z,87.03
2022-08-01T02:08:33.985Z,86.66
2022-08-01T02:11:22.479Z,86.84
2022-08-01T02:13:57.815Z,85.88
2022-08-01T02:16:29.677Z,84.35
2022-08-01T02:18:58.026Z,84.77
2022-08-01T02:21:30.676Z,85.16
2022-08-01T02:24:10.452Z,86.85
2022-08-01T02:26:44.255Z,86.31
2022-08-01T02:29:19.218Z,85.35
2022-08-01T02:31:50.462Z,86.16
2022-08-01T02:34:25.660Z,85.82
2022-08-01T02:36:56.868Z,85.61
2022-08-01T02:39:29.272Z,85.33
2022-08-01T02:42:01.481Z,85.80
2022-08-01T02:44:34.775Z,85.11
2022-08-01T02:47:05.843Z,85.56
2022-08-01T02:49:37.625Z,86.09
2022-08-01T02:52:09.561Z,86.57
2022-08-01T02:54:39.490Z,85.91
2022-08-01T02:57:09.929Z,85.82
2022-08-01T02:59:43.886Z,85.37
2022-08-01T03:02:16.318Z,84.86
2022-08-01T03:04:45.769Z,86.00
2022-08-01T03:07:15.372Z,86.05
2022-08-01T03:09:48.059Z,85.87
2022-08-01T03:12:18.193Z,85.90
2022-08-01T03:14:49.055Z,85.78
2022-08-01T03:17:21.396Z,85.11
2022-08-01T03:19:51.831Z,85.07
2022-08-01T03:22:23.546Z,86.07
2022-08-01T03:24:54.913Z,85.78
2022-08-01T03:27:25.328Z,86.35
2022-08-01T03:29:54.450Z,86.23
2022-08-01T03:32:25.188Z,87.06
2022-08-01T03:34:53.577Z,86.55
2022-08-01T03:37:26.855Z,86.38
2022-08-01T03:40:01.205Z,86.07
2022-08-01T03:42:34.237Z,87.00
2022-08-01T03:45:06.974Z,86.99
2022-08-01T03:47:43.673Z,87.39
2022-08-01T03:50:15.216Z,87.48
2022-08-01T03:52:47.117Z,86.81
2022-08-01T03:55:18.064Z,86.33
2022-08-01T03:57:47.333Z,85.82
2022-08-01T04:00:19.520Z,85.61
2022-08-01T04:02:49.886Z,85.64
2022-08-01T04:05:18.546Z,85.37
2022-08-01T04:07:48.616Z,84.52
2022-08-01T04:10:16.811Z,85.03
2022-08-01T04:12:45.093Z,84.39
2022-08-01T04:15:13.328Z,84.52
2022-08-01T04:17:41.528Z,84.72
2022-08-01T04:20:12.688Z,83.70
2022-08-01T04:22:41.532Z,83.21
2022-08-01T04:25:16.843Z,83.01
2022-08-01T04:27:51.422Z,82.78
2022-08-01T04:30:25.580Z,82.74
2022-08-01T04:32:56.617Z,81.92
2022-08-01T04:36:01.858Z,80.96
2022-08-01T04:38:19.186Z,81.82
2022-08-01T04:40:47.761Z,82.05
2022-08-01T04:43:16.135Z,81.78
2022-08-01T04:45:45.774Z,80.56
2022-08-01T04:48:17.537Z,80.09
2022-08-01T04:50:47.666Z,79.68
2022-08-01T04:53:17.940Z,79.60
2022-08-01T04:55:47.004Z,78.93
2022-08-01T04:58:18.515Z,78.34
2022-08-01T05:00:47.466Z,78.68
2022-08-01T05:03:17.969Z,78.41
2022-08-01T05:05:47.549Z,77.43
2022-08-01T05:08:15.646Z,76.76
2022-08-01T05:10:43.838Z,77.18
2022-08-01T05:13:12.067Z,76.92
2022-08-01T05:15:40.173Z,76.92
2022-08-01T05:18:08.799Z,77.01
2022-08-01T05:20:40.140Z,77.33
2022-08-01T05:23:10.607Z,76.27
2022-08-01T05:25:57.607Z,75.86
2022-08-01T05:28:26.532Z,75.68
2022-08-01T05:30:55.973Z,74.56
2022-08-01T05:33:24.327Z,74.36
2022-08-01T05:35:52.517Z,74.70
2022-08-01T05:38:22.081Z,74.46
2022-08-01T05:40:50.370Z,73.76
2022-08-01T05:43:18.599Z,74.65
2022-08-01T05:45:47.120Z,73.80
2022-08-01T05:48:15.373Z,72.29
2022-08-01T05:50:43.666Z,71.92
2022-08-01T05:53:14.058Z,72.93
2022-08-01T05:55:44.719Z,71.75
2022-08-01T05:58:12.999Z,71.98
2022-08-01T06:01:08.661Z,71.56
2022-08-01T06:04:00.546Z,70.26
2022-08-01T06:06:54.856Z,68.57
2022-08-01T06:09:26.107Z,68.93
2022-08-01T06:12:21.152Z,66.35
2022-08-01T06:14:51.338Z,67.78
2022-08-01T06:17:19.573Z,65.98
2022-08-01T06:19:49.968Z,64.70
2022-08-01T06:22:18.173Z,66.77
2022-08-01T06:24:47.493Z,65.28
2022-08-01T06:27:22.403Z,64.73
2022-08-01T06:29:54.838Z,63.99
2022-08-01T06:32:27.070Z,62.34
2022-08-01T06:34:58.882Z,62.41
2022-08-01T06:37:32.128Z,62.22
2022-08-01T06:40:05.918Z,61.02
2022-08-01T06:42:37.519Z,61.09
2022-08-01T06:45:08.524Z,62.50
2022-08-01T06:47:37.003Z,62.50
2022-08-01T06:50:07.113Z,60.16
2022-08-01T06:52:48.194Z,60.86
2022-08-01T06:55:20.808Z,60.84
2022-08-01T06:57:51.414Z,62.00
2022-08-01T07:00:23.592Z,61.35
2022-08-01T07:03:01.372Z,60.49
2022-08-01T07:05:32.015Z,60.35
2022-08-01T07:08:00.497Z,58.44
2022-08-01T07:10:28.662Z,58.14
2022-08-01T07:12:56.969Z,57.78
2022-08-01T07:15:27.718Z,58.56
2022-08-01T07:17:56.202Z,56.97
2022-08-01T07:20:24.621Z,55.56
2022-08-01T07:22:53.550Z,58.27
2022-08-01T07:25:28.951Z,58.08
2022-08-01T07:27:57.215Z,56.77
2022-08-01T07:30:27.288Z,58.42
2022-08-01T07:32:55.585Z,59.24
2022-08-01T07:35:24.157Z,55.93
2022-08-01T07:37:54.149Z,56.28
2022-08-01T07:40:28.508Z,58.38
2022-08-01T07:42:57.090Z,57.69
2022-08-01T07:45:27.854Z,56.94
2022-08-01T07:47:56.324Z,55.96
2022-08-01T07:50:24.995Z,58.16
2022-08-01T07:52:54.658Z,57.58
2022-08-01T07:55:22.891Z,56.01
2022-08-01T07:57:51.435Z,57.60
2022-08-01T08:00:28.573Z,58.19
2022-08-01T08:03:51.423Z,56.65
2022-08-01T08:06:45.688Z,57.52
2022-08-01T08:09:37.300Z,58.22
2022-08-01T08:12:33.157Z,57.62
2022-08-01T08:15:25.926Z,59.42
2022-08-01T08:17:58.276Z,56.72
2022-08-01T08:20:43.181Z,56.68
2022-08-01T08:23:25.450Z,57.75
2022-08-01T08:26:24.618Z,57.04
2022-08-01T08:29:18.126Z,56.88
2022-08-01T08:31:52.040Z,56.08
2022-08-01T08:34:51.397Z,58.55
2022-08-01T08:37:19.645Z,55.65
2022-08-01T08:39:51.243Z,57.13
2022-08-01T08:42:43.551Z,57.56
2022-08-01T08:45:13.691Z,56.55
2022-08-01T08:47:47.624Z,57.32
2022-08-01T08:50:47.849Z,56.38
2022-08-01T08:53:22.154Z,56.11
2022-08-01T08:55:57.296Z,57.10
2022-08-01T08:58:31.697Z,55.36
2022-08-01T09:01:02.398Z,55.63
2022-08-01T09:03:30.640Z,53.32
2022-08-01T09:06:26.133Z,54.17
2022-08-01T09:08:55.944Z,51.31
2022-08-01T09:11:24.164Z,50.55
2022-08-01T09:14:08.093Z,52.09
2022-08-01T09:16:38.498Z,51.22
2022-08-01T09:19:16.044Z,52.37
2022-08-01T09:22:15.081Z,50.68
2022-08-01T09:24:44.672Z,48.15
2022-08-01T09:27:22.278Z,47.86
2022-08-01T09:30:01.803Z,47.54
2022-08-01T09:32:35.956Z,47.16
2022-08-01T09:35:31.139Z,45.73
2022-08-01T09:38:18.195Z,44.47
2022-08-01T09:40:51.958Z,45.76
2022-08-01T09:43:21.302Z,43.93
2022-08-01T09:45:55.266Z,45.17
2022-08-01T09:48:28.366Z,43.96
2022-08-01T09:51:07.175Z,44.32
2022-08-01T09:53:51.486Z,43.33
2022-08-01T09:56:22.621Z,42.11
2022-08-01T09:59:00.412Z,41.24
2022-08-01T10:01:37.324Z,43.01
2022-08-01T10:04:10.576Z,44.38
2022-08-01T10:06:40.983Z,44.12
2022-08-01T10:09:13.402Z,41.31
2022-08-01T10:11:44.682Z,42.29
2022-08-01T10:14:28.524Z,42.30
2022-08-01T10:17:05.084Z,42.71
2022-08-01T10:20:00.313Z,43.81
2022-08-01T10:22:31.929Z,44.07
2022-08-01T10:25:06.940Z,42.51
2022-08-01T10:27:39.831Z,43.95
2022-08-01T10:30:23.527Z,44.82
2022-08-01T10:33:49.598Z,44.32
2022-08-01T10:36:08.641Z,42.61
2022-08-01T10:38:37.809Z,43.48
2022-08-01T10:41:09.169Z,43.13
2022-08-01T10:44:03.791Z,43.85
2022-08-01T10:46:39.498Z,43.44
2022-08-01T10:49:13.255Z,41.47
2022-08-01T10:51:52.122Z,40.41
2022-08-01T10:54:26.134Z,40.33
2022-08-01T10:56:57.602Z,39.47
2022-08-01T11:00:25.298Z,42.50
2022-08-01T11:03:47.650Z,40.44
2022-08-01T11:06:21.311Z,40.56
2022-08-01T11:08:57.011Z,40.25
2022-08-01T11:11:25.325Z,40.34
2022-08-01T11:14:26.476Z,39.56
2022-08-01T11:17:37.563Z,39.65
2022-08-01T11:20:14.423Z,39.77
2022-08-01T11:23:27.817Z,39.95
2022-08-01T11:26:10.763Z,40.76
2022-08-01T11:29:20.555Z,42.98
2022-08-01T11:31:53.058Z,42.64
2022-08-01T11:34:54.816Z,41.98
2022-08-01T11:38:20.412Z,41.63
2022-08-01T11:40:48.813Z,39.61
2022-08-01T11:43:28.324Z,40.63
2022-08-01T11:46:00.527Z,41.67
2022-08-01T11:48:34.613Z,43.18
2022-08-01T11:51:02.811Z,43.65
2022-08-01T11:53:35.167Z,42.36
2022-08-01T11:56:06.262Z,43.12
2022-08-01T11:58:34.742Z,42.25
2022-08-01T12:01:06.431Z,41.32
2022-08-01T12:03:39.246Z,41.36
2022-08-01T12:06:29.215Z,41.98
2022-08-01T12:09:17.931Z,42.55
2022-08-01T12:11:46.759Z,42.50
2022-08-01T12:14:20.649Z,41.20
2022-08-01T12:16:58.428Z,41.27
2022-08-01T12:20:20.430Z,41.52
2022-08-01T12:23:41.759Z,40.94
2022-08-01T12:26:28.286Z,40.01
2022-08-01T12:29:33.173Z,41.27
2022-08-01T12:32:07.245Z,39.40
2022-08-01T12:35:00.921Z,40.10
2022-08-01T12:37:30.426Z,39.36
2022-08-01T12:39:59.762Z,38.76
2022-08-01T12:42:33.793Z,42.19
2022-08-01T12:45:02.018Z,40.92
2022-08-01T12:47:30.271Z,39.59
2022-08-01T12:50:01.773Z,39.47
2022-08-01T12:52:56.734Z,39.95
2022-08-01T12:55:58.111Z,38.35
2022-08-01T12:58:35.819Z,39.89
2022-08-01T13:01:07.695Z,39.42
2022-08-01T13:04:01.969Z,40.00
2022-08-01T13:06:38.173Z,40.13
2022-08-01T13:09:08.888Z,39.95
2022-08-01T13:11:37.239Z,39.35
2022-08-01T13:14:07.027Z,39.73
2022-08-01T13:16:57.196Z,39.01
2022-08-01T13:19:44.988Z,39.45
2022-08-01T13:22:19.305Z,40.01
2022-08-01T13:25:14.408Z,39.14
2022-08-01T13:27:53.713Z,39.04
2022-08-01T13:31:13.836Z,39.79
2022-08-01T13:34:12.009Z,41.10
2022-08-01T13:37:05.174Z,40.42
2022-08-01T13:39:42.630Z,38.76
2022-08-01T13:42:12.211Z,39.05
2022-08-01T13:44:48.463Z,39.34
2022-08-01T13:47:31.205Z,38.72
2022-08-01T13:50:06.216Z,38.17
2022-08-01T13:52:40.647Z,38.10
2022-08-01T13:55:12.006Z,38.29
2022-08-01T13:58:55.153Z,38.82
2022-08-01T14:01:23.955Z,39.60
2022-08-01T14:03:56.970Z,38.88
2022-08-01T14:06:40.090Z,38.77
2022-08-01T14:09:17.896Z,39.44
2022-08-01T14:11:50.903Z,38.77
2022-08-01T14:14:22.323Z,38.71
2022-08-01T14:17:40.531Z,40.00
2022-08-01T14:20:16.216Z,37.01
2022-08-01T14:22:47.964Z,38.14
2022-08-01T14:26:03.728Z,38.33
2022-08-01T14:28:35.946Z,38.66
2022-08-01T14:31:07.274Z,38.72
2022-08-01T14:33:35.890Z,39.09
2022-08-01T14:36:28.943Z,39.04
2022-08-01T14:39:00.519Z,38.05
2022-08-01T14:41:31.142Z,38.87
2022-08-01T14:44:07.092Z,39.09
2022-08-01T14:47:28.822Z,38.24
2022-08-01T14:49:58.039Z,37.42
2022-08-01T14:52:29.196Z,37.86
2022-08-01T14:55:02.867Z,37.42
2022-08-01T14:57:31.518Z,37.88
2022-08-01T15:00:03.137Z,38.83
2022-08-01T15:02:57.342Z,38.24
2022-08-01T15:05:26.588Z,38.17
2022-08-01T15:07:57.132Z,38.59
2022-08-01T15:10:28.044Z,37.54
2022-08-01T15:12:56.717Z,38.32
2022-08-01T15:15:49.594Z,38.41
2022-08-01T15:18:19.995Z,39.03
2022-08-01T15:20:48.532Z,38.54
2022-08-01T15:23:17.722Z,38.24
2022-08-01T15:25:51.573Z,37.89
2022-08-01T15:28:26.535Z,38.56
2022-08-01T15:31:00.852Z,37.61
2022-08-01T15:33:29.130Z,37.88
2022-08-01T15:35:57.285Z,39.01
2022-08-01T15:38:25.814Z,38.80
2022-08-01T15:41:22.042Z,38.96
2022-08-01T15:44:22.749Z,38.84
2022-08-01T15:46:51.095Z,38.69
2022-08-01T15:49:39.345Z,39.03
2022-08-01T15:52:35.721Z,38.98
2022-08-01T15:55:09.729Z,39.14
2022-08-01T15:57:39.242Z,39.21
2022-08-01T16:00:15.478Z,37.89
2022-08-01T16:02:59.918Z,38.25
2022-08-01T16:05:31.085Z,39.22
2022-08-01T16:08:06.514Z,39.00
2022-08-01T16:10:36.748Z,39.55
2022-08-01T16:13:22.651Z,39.85
2022-08-01T16:15:53.003Z,39.78
2022-08-01T16:18:40.530Z,39.51
2022-08-01T16:21:11.736Z,38.80
2022-08-01T16:24:06.997Z,38.77
2022-08-01T16:27:06.384Z,39.39
2022-08-01T16:29:37.167Z,39.65
2022-08-01T16:32:19.787Z,40.32
2022-08-01T16:35:21.039Z,39.95
2022-08-01T16:37:55.835Z,40.48
2022-08-01T16:40:26.086Z,40.88
2022-08-01T16:42:58.518Z,41.04
2022-08-01T16:45:53.929Z,40.81
2022-08-01T16:48:44.648Z,41.63
2022-08-01T16:51:12.983Z,41.92
2022-08-01T16:53:43.076Z,42.04
2022-08-01T16:57:08.579Z,42.38
2022-08-01T16:59:41.277Z,41.81
2022-08-01T17:02:12.083Z,42.89
2022-08-01T17:05:21.484Z,42.17
2022-08-01T17:08:46.783Z,42.90
2022-08-01T17:11:15.640Z,43.12
2022-08-01T17:14:18.411Z,43.57
2022-08-01T17:21:14.566Z,44.18
2022-08-01T17:24:38.373Z,44.37
2022-08-01T17:27:13.093Z,44.81
2022-08-01T17:29:56.848Z,45.29
2022-08-01T17:32:55.892Z,45.41
2022-08-01T17:35:36.330Z,45.79
2022-08-01T17:42:36.109Z,46.42
2022-08-01T17:45:28.161Z,46.69
2022-08-01T17:47:57.829Z,47.10
2022-08-01T17:50:34.170Z,47.27
2022-08-01T17:53:04.346Z,47.75
2022-08-01T18:04:44.298Z,48.21
2022-08-01T18:08:09.461Z,48.95
2022-08-01T18:11:05.151Z,49.09
2022-08-01T18:13:43.602Z,49.29
2022-08-01T18:20:36.874Z,49.41
2022-08-01T18:23:10.333Z,49.71
2022-08-01T18:25:41.503Z,50.13
2022-08-01T18:28:21.189Z,50.87
2022-08-01T18:31:09.197Z,50.03
2022-08-01T18:34:45.403Z,50.76
2022-08-01T18:37:47.116Z,50.44
2022-08-01T18:40:36.477Z,50.79
2022-08-01T18:43:36.565Z,51.19
2022-08-01T18:46:22.028Z,51.41
2022-08-01T18:57:49.368Z,52.00
2022-08-01T19:00:20.125Z,51.80
2022-08-01T19:03:16.058Z,51.82
2022-08-01T19:05:45.111Z,52.25
2022-08-01T19:08:15.362Z,52.04
2022-08-01T19:10:51.707Z,51.64
2022-08-01T19:14:17.716Z,51.48
2022-08-01T19:16:49.569Z,50.95
2022-08-01T19:19:59.467Z,51.54
2022-08-01T19:22:54.594Z,51.56
2022-08-01T19:25:24.523Z,51.75
2022-08-01T19:28:45.132Z,51.89
2022-08-01T19:31:15.424Z,51.60
2022-08-01T19:33:45.031Z,51.37
2022-08-01T19:36:39.798Z,51.75
2022-08-01T19:39:23.614Z,52.07
2022-08-01T19:47:15.315Z,53.36
2022-08-01T19:50:35.091Z,53.52
2022-08-01T19:53:37.396Z,53.22
2022-08-01T19:56:14.877Z,53.44
2022-08-01T19:58:43.803Z,53.50
2022-08-01T20:01:15.554Z,53.93
2022-08-01T20:03:49.399Z,56.12
2022-08-01T20:06:19.897Z,54.27
2022-08-01T20:08:55.622Z,55.01
2022-08-01T20:11:27.390Z,55.17
2022-08-01T20:13:58.418Z,55.43
2022-08-01T20:16:28.496Z,55.65
2022-08-01T20:18:58.817Z,56.60
2022-08-01T20:21:28.079Z,57.26
2022-08-01T20:24:03.245Z,57.71
2022-08-01T20:26:32.882Z,58.14
2022-08-01T20:29:29.041Z,58.50
2022-08-01T20:32:04.283Z,58.41
2022-08-01T20:34:38.320Z,58.41
2022-08-01T20:37:14.100Z,58.43
2022-08-01T20:40:13.412Z,56.47
2022-08-01T20:42:45.773Z,56.48
2022-08-01T20:45:18.755Z,56.44
2022-08-01T20:47:50.912Z,56.43
2022-08-01T20:50:52.789Z,56.88
2022-08-01T20:53:22.792Z,56.65
2022-08-01T20:55:59.194Z,58.35
2022-08-01T20:58:38.406Z,56.61
2022-08-01T21:01:09.744Z,57.47
2022-08-01T21:03:47.081Z,59.13
2022-08-01T21:06:22.156Z,60.05
2022-08-01T21:08:51.274Z,60.70
2022-08-01T21:11:22.459Z,60.99
2022-08-01T21:14:13.117Z,60.37
2022-08-01T21:16:47.768Z,60.90
2022-08-01T21:19:23.151Z,60.81
2022-08-01T21:21:54.770Z,61.01
2022-08-01T21:24:31.130Z,61.63
2022-08-01T21:27:04.578Z,61.30
2022-08-01T21:29:34.470Z,60.58
2022-08-01T21:32:14.548Z,60.07
2022-08-01T21:34:47.092Z,60.20
2022-08-01T21:37:17.979Z,60.57
2022-08-01T21:39:48.744Z,60.40
2022-08-01T21:42:32.388Z,61.03
2022-08-01T21:45:03.323Z,61.13
2022-08-01T21:47:32.612Z,60.82
2022-08-01T21:50:05.598Z,60.51
2022-08-01T21:52:41.410Z,60.50
2022-08-01T21:55:18.561Z,60.51
2022-08-01T21:58:02.352Z,60.71
2022-08-01T22:00:32.044Z,61.38
2022-08-01T22:03:10.582Z,62.71
2022-08-01T22:05:50.601Z,63.17
2022-08-01T22:08:34.494Z,63.71
2022-08-01T22:11:06.421Z,64.18
2022-08-01T22:13:37.543Z,62.57
2022-08-01T22:16:07.394Z,63.10
2022-08-01T22:18:37.386Z,64.57
2022-08-01T22:21:05.822Z,62.07
2022-08-01T22:23:41.507Z,62.29
2022-08-01T22:26:11.666Z,62.51
2022-08-01T22:28:41.827Z,62.86
2022-08-01T22:31:10.310Z,63.68
2022-08-01T22:33:39.886Z,64.41
2022-08-01T22:36:08.697Z,65.18
2022-08-01T22:38:37.013Z,65.34
2022-08-01T22:41:07.092Z,66.08
2022-08-01T22:43:44.230Z,66.56
2022-08-01T22:46:23.705Z,66.36
2022-08-01T22:48:54.250Z,66.84
2022-08-01T22:51:54.532Z,66.80
2022-08-01T22:54:31.169Z,66.45
2022-08-01T22:57:07.306Z,66.39
2022-08-01T22:59:44.045Z,66.33
2022-08-01T23:02:17.503Z,65.25
2022-08-01T23:04:48.759Z,64.42
2022-08-01T23:07:21.386Z,63.37
2022-08-01T23:09:55.268Z,62.25
2022-08-01T23:12:26.392Z,62.35
2022-08-01T23:15:01.218Z,62.01
2022-08-01T23:17:54.723Z,61.56
2022-08-01T23:20:29.257Z,61.58
2022-08-01T23:23:31.006Z,61.65
2022-08-01T23:26:01.044Z,61.26
2022-08-01T23:28:33.346Z,61.45
2022-08-01T23:31:06.044Z,61.67
2022-08-01T23:33:59.592Z,62.10
2022-08-01T23:36:28.771Z,62.32
2022-08-01T23:38:58.026Z,61.18
2022-08-01T23:41:27.105Z,62.46
2022-08-01T23:43:56.339Z,64.61
2022-08-01T23:46:25.920Z,65.77
2022-08-01T23:48:54.237Z,66.55
2022-08-01T23:51:24.922Z,66.45
2022-08-01T23:53:55.534Z,65.64
2022-08-01T23:56:25.553Z,66.01
2022-08-01T23:58:55.095Z,65.61
